createdAt,value
2022-12-05T00:00:35.487Z,4.75
2022-12-05T00:01:35.548Z,4.94
2022-12-05T00:02:35.502Z,4.75
2022-12-05T00:03:35.427Z,4.78
2022-12-05T00:04:35.465Z,4.83
2022-12-05T00:05:35.396Z,4.79
2022-12-05T00:06:35.356Z,4.82
2022-12-05T00:07:35.380Z,4.93
2022-12-05T00:08:35.385Z,4.77
2022-12-05T00:09:35.323Z,4.93
2022-12-05T00:10:35.316Z,4.82
2022-12-05T00:11:35.314Z,4.75
2022-12-05T00:12:35.296Z,4.83
2022-12-05T00:13:35.317Z,4.93
2022-12-05T00:14:35.275Z,4.86
2022-12-05T00:15:35.264Z,4.94
2022-12-05T00:16:35.458Z,4.93
2022-12-05T00:17:35.238Z,4.93
2022-12-05T00:18:35.227Z,4.82
2022-12-05T00:19:35.216Z,4.86
2022-12-05T00:20:35.206Z,4.77
2022-12-05T00:21:35.217Z,4.83
2022-12-05T00:22:35.187Z,4.82
2022-12-05T00:23:35.175Z,4.93
2022-12-05T00:24:35.186Z,4.89
2022-12-05T00:25:35.147Z,4.83
2022-12-05T00:26:35.170Z,4.93
2022-12-05T00:27:35.134Z,4.88
2022-12-05T00:28:35.140Z,4.94
2022-12-05T00:29:35.104Z,4.79
2022-12-05T00:30:35.103Z,4.89
2022-12-05T00:31:35.173Z,4.89
2022-12-05T00:32:35.079Z,4.75
2022-12-05T00:33:35.087Z,4.75
2022-12-05T00:34:35.083Z,4.94
2022-12-05T00:35:35.046Z,4.88
2022-12-05T00:36:35.035Z,4.75
2022-12-05T00:37:35.017Z,4.82
2022-12-05T00:38:35.019Z,4.83
2022-12-05T00:39:35.020Z,4.75
2022-12-05T00:40:35.015Z,4.82
2022-12-05T00:41:34.995Z,4.91
2022-12-05T00:42:34.971Z,4.93
2022-12-05T00:43:34.958Z,4.97
2022-12-05T00:44:34.949Z,4.86
2022-12-05T00:45:35.022Z,4.88
2022-12-05T00:46:35.006Z,4.96
2022-12-05T00:47:34.919Z,4.88
2022-12-05T00:48:34.905Z,4.89
2022-12-05T00:49:34.901Z,4.96
2022-12-05T00:50:34.914Z,4.93
2022-12-05T00:51:34.874Z,4.91
2022-12-05T00:52:34.861Z,4.79
2022-12-05T00:53:34.850Z,4.91
2022-12-05T00:54:34.838Z,4.89
2022-12-05T00:55:34.855Z,4.82
2022-12-05T00:56:34.843Z,4.89
2022-12-05T00:57:34.806Z,4.88
2022-12-05T00:58:34.797Z,4.83
2022-12-05T00:59:34.784Z,4.93
2022-12-05T01:00:34.776Z,4.89
2022-12-05T01:01:34.918Z,4.94
2022-12-05T01:02:34.753Z,4.91
2022-12-05T01:03:34.793Z,4.94
2022-12-05T01:04:34.739Z,4.75
2022-12-05T01:05:34.724Z,4.85
2022-12-05T01:06:34.737Z,4.97
2022-12-05T01:07:34.745Z,4.88
2022-12-05T01:08:34.681Z,4.96
2022-12-05T01:09:34.680Z,4.94
2022-12-05T01:10:34.661Z,4.88
2022-12-05T01:11:39.455Z,4.91
2022-12-05T01:12:35.665Z,4.97
2022-12-05T01:13:34.634Z,4.89
2022-12-05T01:14:34.625Z,4.93
2022-12-05T01:15:34.612Z,4.97
2022-12-05T01:16:34.690Z,4.94
2022-12-05T01:17:34.597Z,4.88
2022-12-05T01:18:34.572Z,4.97
2022-12-05T01:19:34.571Z,4.91
2022-12-05T01:20:34.552Z,4.91
2022-12-05T01:21:34.573Z,4.93
2022-12-05T01:22:34.533Z,4.93
2022-12-05T01:23:34.522Z,4.98
2022-12-05T01:24:34.514Z,4.97
2022-12-05T01:25:34.505Z,4.91
2022-12-05T01:26:34.505Z,4.91
2022-12-05T01:27:34.481Z,4.96
2022-12-05T01:28:34.551Z,4.96
2022-12-05T01:29:34.464Z,4.88
2022-12-05T01:30:34.451Z,4.86
2022-12-05T01:31:34.505Z,4.94
2022-12-05T01:32:34.427Z,4.93
2022-12-05T01:33:34.444Z,4.91
2022-12-05T01:34:34.407Z,4.93
2022-12-05T01:35:34.399Z,4.91
2022-12-05T01:36:34.397Z,4.91
2022-12-05T01:37:34.378Z,4.93
2022-12-05T01:38:34.382Z,4.98
2022-12-05T01:39:34.351Z,5.00
2022-12-05T01:40:34.338Z,4.97
2022-12-05T01:41:34.332Z,4.94
2022-12-05T01:42:34.315Z,4.91
2022-12-05T01:43:34.338Z,4.91
2022-12-05T01:44:34.318Z,4.91
2022-12-05T01:45:34.348Z,5.00
2022-12-05T01:46:34.272Z,4.94
2022-12-05T01:47:34.266Z,4.94
2022-12-05T01:48:34.276Z,4.96
2022-12-05T01:49:34.245Z,4.93
2022-12-05T01:50:34.235Z,4.94
2022-12-05T01:51:34.226Z,4.98
2022-12-05T01:52:34.227Z,4.94
2022-12-05T01:53:34.200Z,4.94
2022-12-05T01:54:34.202Z,4.94
2022-12-05T01:55:34.178Z,5.00
2022-12-05T01:56:34.161Z,4.91
2022-12-05T01:57:34.221Z,4.98
2022-12-05T01:58:34.141Z,4.94
2022-12-05T01:59:34.202Z,5.00
2022-12-05T02:00:34.145Z,4.94
2022-12-05T02:01:34.239Z,4.93
2022-12-05T02:02:34.135Z,4.97
2022-12-05T02:03:34.111Z,4.96
2022-12-05T02:04:34.080Z,4.93
2022-12-05T02:05:34.072Z,4.94
2022-12-05T02:06:34.055Z,4.98
2022-12-05T02:07:34.124Z,4.97
2022-12-05T02:08:34.061Z,4.98
2022-12-05T02:09:34.034Z,4.97
2022-12-05T02:10:34.017Z,4.96
2022-12-05T02:11:34.015Z,4.93
2022-12-05T02:12:33.994Z,4.94
2022-12-05T02:13:34.011Z,4.97
2022-12-05T02:14:33.990Z,4.94
2022-12-05T02:15:33.968Z,4.96
2022-12-05T02:16:34.033Z,4.94
2022-12-05T02:17:33.942Z,4.94
2022-12-05T02:18:33.952Z,4.98
2022-12-05T02:19:33.925Z,4.97
2022-12-05T02:20:33.906Z,4.96
2022-12-05T02:21:33.921Z,4.91
2022-12-05T02:22:33.891Z,4.93
2022-12-05T02:23:33.906Z,5.04
2022-12-05T02:24:33.866Z,4.98
2022-12-05T02:25:33.857Z,5.00
2022-12-05T02:26:33.864Z,4.94
2022-12-05T02:27:33.833Z,4.98
2022-12-05T02:28:33.826Z,4.97
2022-12-05T02:29:33.834Z,4.98
2022-12-05T02:30:33.797Z,4.98
2022-12-05T02:31:33.859Z,4.93
2022-12-05T02:32:33.839Z,4.98
2022-12-05T02:33:33.777Z,5.04
2022-12-05T02:34:33.784Z,4.96
2022-12-05T02:35:33.763Z,5.00
2022-12-05T02:36:33.733Z,4.94
2022-12-05T02:37:33.729Z,5.07
2022-12-05T02:38:33.717Z,4.96
2022-12-05T02:39:33.733Z,4.97
2022-12-05T02:40:33.694Z,4.94
2022-12-05T02:41:33.691Z,5.00
2022-12-05T02:42:33.673Z,4.96
2022-12-05T02:43:33.668Z,4.96
2022-12-05T02:44:33.681Z,5.04
2022-12-05T02:45:33.701Z,4.98
2022-12-05T02:46:33.656Z,5.00
2022-12-05T02:47:33.623Z,4.91
2022-12-05T02:48:33.662Z,4.98
2022-12-05T02:49:33.603Z,4.96
2022-12-05T02:50:33.588Z,5.00
2022-12-05T02:51:33.586Z,5.01
2022-12-05T02:52:33.598Z,4.98
2022-12-05T02:53:33.557Z,5.00
2022-12-05T02:54:33.545Z,5.03
2022-12-05T02:55:33.561Z,4.97
2022-12-05T02:56:33.526Z,5.07
2022-12-05T02:57:33.534Z,4.98
2022-12-05T02:58:33.505Z,5.04
2022-12-05T02:59:33.495Z,5.14
2022-12-05T03:00:33.503Z,4.98
2022-12-05T03:01:33.531Z,5.01
2022-12-05T03:02:33.461Z,5.01
2022-12-05T03:03:33.452Z,5.07
2022-12-05T03:04:33.583Z,5.06
2022-12-05T03:05:33.459Z,4.98
2022-12-05T03:06:33.421Z,5.01
2022-12-05T03:07:33.456Z,4.97
2022-12-05T03:08:33.407Z,4.98
2022-12-05T03:09:33.387Z,5.12
2022-12-05T03:10:33.375Z,5.03
2022-12-05T03:11:33.399Z,5.14
2022-12-05T03:12:33.389Z,5.11
2022-12-05T03:13:33.348Z,5.04
2022-12-05T03:14:33.333Z,4.98
2022-12-05T03:15:33.324Z,5.06
2022-12-05T03:16:33.400Z,5.09
2022-12-05T03:17:33.303Z,4.94
2022-12-05T03:18:33.309Z,5.09
2022-12-05T03:19:33.291Z,5.15
2022-12-05T03:20:33.295Z,5.12
2022-12-05T03:21:33.269Z,4.97
2022-12-05T03:22:33.270Z,5.01
2022-12-05T03:23:33.256Z,5.15
2022-12-05T03:24:33.234Z,5.07
2022-12-05T03:25:33.219Z,5.03
2022-12-05T03:26:33.216Z,5.03
2022-12-05T03:27:33.202Z,5.11
2022-12-05T03:28:33.206Z,5.04
2022-12-05T03:29:33.177Z,5.09
2022-12-05T03:30:33.226Z,5.15
2022-12-05T03:31:33.161Z,5.09
2022-12-05T03:32:33.160Z,5.07
2022-12-05T03:33:33.133Z,5.14
2022-12-05T03:34:33.123Z,5.06
2022-12-05T03:35:33.115Z,5.06
2022-12-05T03:36:33.122Z,5.11
2022-12-05T03:37:33.131Z,5.06
2022-12-05T03:38:33.105Z,5.06
2022-12-05T03:39:33.073Z,5.09
2022-12-05T03:40:33.059Z,5.04
2022-12-05T03:41:33.052Z,5.09
2022-12-05T03:42:33.051Z,5.12
2022-12-05T03:43:33.057Z,5.09
2022-12-05T03:44:33.018Z,5.11
2022-12-05T03:45:33.029Z,5.12
2022-12-05T03:46:33.103Z,5.07
2022-12-05T03:47:33.024Z,5.06
2022-12-05T03:48:32.996Z,5.11
2022-12-05T03:49:34.304Z,5.11
2022-12-05T03:50:32.992Z,5.04
2022-12-05T03:51:32.960Z,5.04
2022-12-05T03:52:45.795Z,5.06
2022-12-05T03:53:33.943Z,5.04
2022-12-05T03:54:32.907Z,5.14
2022-12-05T03:55:32.899Z,5.09
2022-12-05T03:56:32.906Z,5.06
2022-12-05T03:57:32.887Z,5.04
2022-12-05T03:58:32.866Z,5.11
2022-12-05T03:59:32.863Z,5.07
2022-12-05T04:00:32.845Z,5.14
2022-12-05T04:01:32.936Z,5.06
2022-12-05T04:02:32.864Z,5.04
2022-12-05T04:03:32.947Z,5.09
2022-12-05T04:04:32.799Z,5.01
2022-12-05T04:05:32.798Z,5.04
2022-12-05T04:06:32.817Z,5.06
2022-12-05T04:07:32.845Z,5.06
2022-12-05T04:08:32.782Z,5.07
2022-12-05T04:09:32.750Z,5.06
2022-12-05T04:10:32.740Z,5.09
2022-12-05T04:11:32.753Z,5.04
2022-12-05T04:12:32.719Z,5.07
2022-12-05T04:13:32.709Z,5.01
2022-12-05T04:14:32.692Z,5.12
2022-12-05T04:15:32.748Z,5.09
2022-12-05T04:16:32.703Z,5.06
2022-12-05T04:17:32.670Z,5.04
2022-12-05T04:18:32.654Z,5.09
2022-12-05T04:19:32.643Z,5.06
2022-12-05T04:20:32.628Z,5.06
2022-12-05T04:21:32.652Z,5.04
2022-12-05T04:22:32.610Z,5.09
2022-12-05T04:23:32.603Z,5.06
2022-12-05T04:24:32.618Z,5.07
2022-12-05T04:25:32.582Z,5.04
2022-12-05T04:26:32.594Z,5.09
2022-12-05T04:27:32.558Z,5.06
2022-12-05T04:28:32.545Z,5.12
2022-12-05T04:29:32.538Z,5.11
2022-12-05T04:30:32.524Z,5.11
2022-12-05T04:31:32.662Z,5.03
2022-12-05T04:32:32.516Z,5.09
2022-12-05T04:33:32.500Z,5.06
2022-12-05T04:34:32.486Z,5.06
2022-12-05T04:35:32.479Z,5.11
2022-12-05T04:36:32.469Z,5.07
2022-12-05T04:37:32.486Z,5.16
2022-12-05T04:38:32.451Z,5.09
2022-12-05T04:39:32.432Z,5.07
2022-12-05T04:40:32.442Z,5.06
2022-12-05T04:41:32.413Z,5.11
2022-12-05T04:42:32.402Z,5.12
2022-12-05T04:43:32.421Z,5.15
2022-12-05T04:44:32.395Z,5.11
2022-12-05T04:45:32.377Z,5.07
2022-12-05T04:46:32.421Z,5.03
2022-12-05T04:47:32.350Z,5.09
2022-12-05T04:48:32.357Z,5.03
2022-12-05T04:49:32.345Z,5.11
2022-12-05T04:50:32.317Z,5.06
2022-12-05T04:51:32.305Z,5.16
2022-12-05T04:52:32.318Z,5.12
2022-12-05T04:53:32.289Z,5.09
2022-12-05T04:54:32.271Z,5.12
2022-12-05T04:55:32.264Z,5.07
2022-12-05T04:56:32.299Z,5.12
2022-12-05T04:57:32.245Z,5.16
2022-12-05T04:58:32.229Z,5.14
2022-12-05T04:59:32.224Z,5.04
2022-12-05T05:00:32.212Z,5.07
2022-12-05T05:01:32.269Z,5.18
2022-12-05T05:02:32.299Z,5.06
2022-12-05T05:03:32.182Z,5.15
2022-12-05T05:04:32.175Z,5.07
2022-12-05T05:05:32.160Z,5.12
2022-12-05T05:06:32.145Z,5.12
2022-12-05T05:07:32.203Z,5.11
2022-12-05T05:08:32.122Z,5.06
2022-12-05T05:09:32.114Z,5.09
2022-12-05T05:10:32.113Z,5.12
2022-12-05T05:11:32.098Z,5.15
2022-12-05T05:12:32.141Z,5.12
2022-12-05T05:13:32.075Z,5.14
2022-12-05T05:14:32.065Z,5.11
2022-12-05T05:15:32.053Z,5.12
2022-12-05T05:16:32.101Z,5.11
2022-12-05T05:17:32.030Z,5.15
2022-12-05T05:18:32.046Z,5.09
2022-12-05T05:19:32.020Z,5.11
2022-12-05T05:20:32.010Z,5.14
2022-12-05T05:21:31.989Z,5.09
2022-12-05T05:22:31.985Z,5.11
2022-12-05T05:23:31.987Z,5.16
2022-12-05T05:24:31.957Z,5.09
2022-12-05T05:25:31.945Z,5.12
2022-12-05T05:26:31.939Z,5.15
2022-12-05T05:27:31.926Z,5.06
2022-12-05T05:28:31.964Z,5.14
2022-12-05T05:29:31.935Z,5.09
2022-12-05T05:30:31.899Z,5.12
2022-12-05T05:31:31.967Z,5.12
2022-12-05T05:32:31.877Z,5.15
2022-12-05T05:33:31.863Z,5.12
2022-12-05T05:34:31.853Z,5.18
2022-12-05T05:35:31.857Z,5.14
2022-12-05T05:36:31.831Z,5.14
2022-12-05T05:37:31.848Z,5.19
2022-12-05T05:38:31.812Z,5.18
2022-12-05T05:39:31.795Z,5.15
2022-12-05T05:40:31.793Z,5.22
2022-12-05T05:41:31.773Z,5.18
2022-12-05T05:42:31.771Z,5.06
2022-12-05T05:43:31.779Z,5.06
2022-12-05T05:44:31.774Z,5.14
2022-12-05T05:45:31.737Z,5.12
2022-12-05T05:46:31.831Z,5.16
2022-12-05T05:47:31.717Z,5.06
2022-12-05T05:48:31.731Z,5.15
2022-12-05T05:49:31.701Z,5.14
2022-12-05T05:50:31.685Z,5.14
2022-12-05T05:51:31.670Z,5.21
2022-12-05T05:52:31.664Z,5.19
2022-12-05T05:53:31.686Z,5.16
2022-12-05T05:54:31.639Z,5.18
2022-12-05T05:55:31.657Z,5.15
2022-12-05T05:56:31.684Z,5.14
2022-12-05T05:57:31.603Z,5.16
2022-12-05T05:58:31.622Z,5.06
2022-12-05T05:59:31.590Z,5.15
2022-12-05T06:00:31.621Z,5.12
2022-12-05T06:01:31.566Z,5.21
2022-12-05T06:02:31.593Z,5.21
2022-12-05T06:03:31.723Z,5.16
2022-12-05T06:04:31.533Z,5.15
2022-12-05T06:05:31.549Z,5.21
2022-12-05T06:06:31.536Z,5.19
2022-12-05T06:07:31.544Z,5.18
2022-12-05T06:08:31.492Z,5.15
2022-12-05T06:09:31.482Z,5.16
2022-12-05T06:10:31.469Z,5.19
2022-12-05T06:11:31.480Z,5.15
2022-12-05T06:12:31.450Z,5.18
2022-12-05T06:13:31.437Z,5.21
2022-12-05T06:14:31.429Z,5.16
2022-12-05T06:15:31.413Z,5.22
2022-12-05T06:16:31.555Z,5.16
2022-12-05T06:17:31.386Z,5.15
2022-12-05T06:18:31.391Z,5.22
2022-12-05T06:19:31.369Z,5.14
2022-12-05T06:20:31.363Z,5.06
2022-12-05T06:21:31.367Z,5.16
2022-12-05T06:22:31.343Z,5.21
2022-12-05T06:23:31.323Z,5.22
2022-12-05T06:24:31.320Z,5.15
2022-12-05T06:25:31.306Z,5.18
2022-12-05T06:26:31.321Z,5.11
2022-12-05T06:27:31.289Z,5.21
2022-12-05T06:28:31.274Z,5.12
2022-12-05T06:29:34.098Z,5.16
2022-12-05T06:30:31.267Z,5.21
2022-12-05T06:31:31.354Z,5.18
2022-12-05T06:32:31.255Z,5.18
2022-12-05T06:33:31.218Z,5.21
2022-12-05T06:34:31.213Z,5.12
2022-12-05T06:35:31.223Z,5.22
2022-12-05T06:36:31.196Z,5.21
2022-12-05T06:37:31.201Z,5.19
2022-12-05T06:38:31.169Z,5.15
2022-12-05T06:39:31.151Z,5.22
2022-12-05T06:40:31.166Z,5.15
2022-12-05T06:41:31.135Z,5.19
2022-12-05T06:42:31.126Z,5.18
2022-12-05T06:43:31.111Z,5.21
2022-12-05T06:44:31.101Z,5.12
2022-12-05T06:45:31.162Z,5.21
2022-12-05T06:46:31.075Z,5.22
2022-12-05T06:47:31.065Z,5.18
2022-12-05T06:48:31.078Z,5.18
2022-12-05T06:49:34.972Z,5.15
2022-12-05T06:50:32.074Z,5.21
2022-12-05T06:51:31.022Z,5.22
2022-12-05T06:52:31.016Z,5.14
2022-12-05T06:53:31.009Z,5.21
2022-12-05T06:54:30.998Z,5.09
2022-12-05T06:55:30.987Z,5.18
2022-12-05T06:56:30.993Z,5.12
2022-12-05T06:57:30.953Z,5.15
2022-12-05T06:58:30.949Z,5.21
2022-12-05T06:59:30.938Z,5.11
2022-12-05T07:00:30.932Z,5.21
2022-12-05T07:01:31.011Z,5.24
2022-12-05T07:02:30.938Z,5.16
2022-12-05T07:03:30.902Z,5.21
2022-12-05T07:04:30.911Z,5.15
2022-12-05T07:05:30.885Z,5.16
2022-12-05T07:06:30.891Z,5.18
2022-12-05T07:07:30.918Z,5.18
2022-12-05T07:08:30.844Z,5.18
2022-12-05T07:09:30.833Z,5.16
2022-12-05T07:10:30.827Z,5.14
2022-12-05T07:11:30.828Z,5.18
2022-12-05T07:12:30.798Z,5.18
2022-12-05T07:13:30.792Z,5.18
2022-12-05T07:14:46.920Z,5.15
2022-12-05T07:15:31.762Z,5.19
2022-12-05T07:16:30.844Z,5.18
2022-12-05T07:17:30.741Z,5.16
2022-12-05T07:18:30.756Z,5.21
2022-12-05T07:19:30.719Z,5.24
2022-12-05T07:20:49.486Z,5.19
2022-12-05T07:21:31.696Z,5.19
2022-12-05T07:22:30.693Z,5.16
2022-12-05T07:23:30.702Z,5.16
2022-12-05T07:24:30.673Z,5.18
2022-12-05T07:25:30.655Z,5.16
2022-12-05T07:26:30.645Z,5.16
2022-12-05T07:27:30.639Z,5.21
2022-12-05T07:28:30.622Z,5.14
2022-12-05T07:29:30.640Z,5.16
2022-12-05T07:30:30.606Z,5.16
2022-12-05T07:31:30.636Z,5.21
2022-12-05T07:32:30.581Z,5.16
2022-12-05T07:33:30.571Z,5.18
2022-12-05T07:34:30.587Z,5.19
2022-12-05T07:35:30.545Z,5.18
2022-12-05T07:36:30.560Z,5.15
2022-12-05T07:37:30.526Z,5.21
2022-12-05T07:38:30.540Z,5.19
2022-12-05T07:39:30.526Z,5.11
2022-12-05T07:40:30.502Z,5.22
2022-12-05T07:41:30.487Z,5.18
2022-12-05T07:42:30.478Z,5.16
2022-12-05T07:43:30.459Z,5.22
2022-12-05T07:44:30.483Z,5.25
2022-12-05T07:45:30.581Z,5.16
2022-12-05T07:46:30.446Z,5.21
2022-12-05T07:47:30.518Z,5.21
2022-12-05T07:48:30.433Z,5.21
2022-12-05T07:49:30.438Z,5.16
2022-12-05T07:50:30.461Z,5.15
2022-12-05T07:51:30.388Z,5.16
2022-12-05T07:52:30.409Z,5.21
2022-12-05T07:53:30.349Z,5.16
2022-12-05T07:54:30.344Z,5.16
2022-12-05T07:55:30.361Z,5.16
2022-12-05T07:56:30.319Z,5.21
2022-12-05T07:57:30.309Z,5.21
2022-12-05T07:58:30.303Z,5.24
2022-12-05T07:59:30.332Z,5.21
2022-12-05T08:00:30.280Z,5.24
2022-12-05T08:01:30.382Z,5.19
2022-12-05T08:02:30.343Z,5.25
2022-12-05T08:03:30.256Z,5.22
2022-12-05T08:04:30.236Z,5.15
2022-12-05T08:05:30.248Z,5.16
2022-12-05T08:06:30.220Z,5.19
2022-12-05T08:07:30.267Z,5.19
2022-12-05T08:08:30.216Z,5.16
2022-12-05T08:09:30.183Z,5.18
2022-12-05T08:10:30.196Z,5.24
2022-12-05T08:11:30.164Z,5.24
2022-12-05T08:12:30.152Z,5.21
2022-12-05T08:13:30.132Z,5.25
2022-12-05T08:14:30.129Z,5.29
2022-12-05T08:15:30.138Z,5.27
2022-12-05T08:16:30.172Z,5.21
2022-12-05T08:17:30.115Z,5.22
2022-12-05T08:18:30.085Z,5.30
2022-12-05T08:19:30.070Z,5.22
2022-12-05T08:20:30.065Z,5.19
2022-12-05T08:21:30.074Z,5.29
2022-12-05T08:22:30.049Z,5.33
2022-12-05T08:23:30.035Z,5.22
2022-12-05T08:24:30.059Z,5.19
2022-12-05T08:25:30.009Z,5.21
2022-12-05T08:26:30.026Z,5.29
2022-12-05T08:27:29.988Z,5.27
2022-12-05T08:28:29.980Z,5.24
2022-12-05T08:29:29.964Z,5.27
2022-12-05T08:30:30.037Z,5.24
2022-12-05T08:31:30.018Z,5.29
2022-12-05T08:32:29.933Z,5.19
2022-12-05T08:33:29.923Z,5.25
2022-12-05T08:34:29.909Z,5.25
2022-12-05T08:35:29.925Z,5.25
2022-12-05T08:36:29.913Z,5.27
2022-12-05T08:37:29.874Z,5.27
2022-12-05T08:38:29.921Z,5.22
2022-12-05T08:39:32.610Z,5.25
2022-12-05T08:40:30.870Z,5.33
2022-12-05T08:41:29.882Z,5.34
2022-12-05T08:42:29.831Z,5.29
2022-12-05T08:43:29.807Z,5.25
2022-12-05T08:44:29.805Z,5.25
2022-12-05T08:45:29.789Z,5.24
2022-12-05T08:46:29.924Z,5.25
2022-12-05T08:47:32.232Z,5.29
2022-12-05T08:48:29.928Z,5.33
2022-12-05T08:49:29.751Z,5.33
2022-12-05T08:50:29.741Z,5.30
2022-12-05T08:51:29.746Z,5.22
2022-12-05T08:52:29.740Z,5.32
2022-12-05T08:53:29.704Z,5.32
2022-12-05T08:54:29.696Z,5.30
2022-12-05T08:55:29.679Z,5.25
2022-12-05T08:56:29.713Z,5.29
2022-12-05T08:57:29.682Z,5.32
2022-12-05T08:58:29.659Z,5.32
2022-12-05T08:59:29.671Z,5.30
2022-12-05T09:00:29.625Z,5.29
2022-12-05T09:01:29.687Z,5.29
2022-12-05T09:02:29.711Z,5.37
2022-12-05T09:03:29.599Z,5.33
2022-12-05T09:04:29.586Z,5.30
2022-12-05T09:05:29.873Z,5.33
2022-12-05T09:06:29.615Z,5.33
2022-12-05T09:07:29.624Z,5.29
2022-12-05T09:08:29.573Z,5.34
2022-12-05T09:09:29.530Z,5.32
2022-12-05T09:10:29.619Z,5.29
2022-12-05T09:11:29.511Z,5.37
2022-12-05T09:12:29.519Z,5.32
2022-12-05T09:13:29.512Z,5.32
2022-12-05T09:14:29.484Z,5.36
2022-12-05T09:15:29.568Z,5.34
2022-12-05T09:16:35.101Z,5.29
2022-12-05T09:17:30.447Z,5.34
2022-12-05T09:18:29.463Z,5.30
2022-12-05T09:19:29.422Z,5.32
2022-12-05T09:20:29.421Z,5.39
2022-12-05T09:21:29.399Z,5.30
2022-12-05T09:22:29.397Z,5.32
2022-12-05T09:23:29.399Z,5.29
2022-12-05T09:24:29.381Z,5.30
2022-12-05T09:25:29.380Z,5.29
2022-12-05T09:26:29.380Z,5.36
2022-12-05T09:27:29.340Z,5.32
2022-12-05T09:28:29.350Z,5.39
2022-12-05T09:29:29.319Z,5.34
2022-12-05T09:30:29.319Z,5.36
2022-12-05T09:31:29.378Z,5.36
2022-12-05T09:32:29.296Z,5.33
2022-12-05T09:33:29.273Z,5.34
2022-12-05T09:34:29.263Z,5.41
2022-12-05T09:35:29.296Z,5.36
2022-12-05T09:36:29.264Z,5.32
2022-12-05T09:37:41.680Z,5.39
2022-12-05T09:38:30.216Z,5.34
2022-12-05T09:39:29.241Z,5.37
2022-12-05T09:40:29.202Z,5.39
2022-12-05T09:41:29.197Z,5.41
2022-12-05T09:42:29.171Z,5.39
2022-12-05T09:43:29.176Z,5.39
2022-12-05T09:44:29.208Z,5.43
2022-12-05T09:45:29.157Z,5.39
2022-12-05T09:46:33.961Z,5.39
2022-12-05T09:47:30.187Z,5.41
2022-12-05T09:48:29.111Z,5.36
2022-12-05T09:49:29.122Z,5.41
2022-12-05T09:50:29.094Z,5.41
2022-12-05T09:51:29.081Z,5.37
2022-12-05T09:52:29.066Z,5.34
2022-12-05T09:53:29.084Z,5.43
2022-12-05T09:54:29.062Z,5.43
2022-12-05T09:55:29.066Z,5.43
2022-12-05T09:56:29.028Z,5.43
2022-12-05T09:57:33.716Z,5.41
2022-12-05T09:58:30.001Z,5.41
2022-12-05T09:59:28.998Z,5.47
2022-12-05T10:00:29.021Z,5.47
2022-12-05T10:01:29.074Z,5.50
2022-12-05T10:02:28.959Z,5.43
2022-12-05T10:03:28.952Z,5.43
2022-12-05T10:04:29.221Z,5.47
2022-12-05T10:05:29.079Z,5.41
2022-12-05T10:06:28.921Z,5.33
2022-12-05T10:07:28.928Z,5.40
2022-12-05T10:08:28.919Z,5.41
2022-12-05T10:09:28.914Z,5.43
2022-12-05T10:10:28.886Z,5.41
2022-12-05T10:11:28.865Z,5.50
2022-12-05T10:12:28.853Z,5.52
2022-12-05T10:13:28.849Z,5.41
2022-12-05T10:14:28.867Z,5.48
2022-12-05T10:15:28.825Z,5.37
2022-12-05T10:16:28.900Z,5.50
2022-12-05T10:17:28.801Z,5.44
2022-12-05T10:18:28.809Z,5.43
2022-12-05T10:19:28.778Z,5.44
2022-12-05T10:20:28.780Z,5.55
2022-12-05T10:21:28.754Z,5.43
2022-12-05T10:22:28.748Z,5.52
2022-12-05T10:23:56.057Z,5.50
2022-12-05T10:24:29.739Z,5.54
2022-12-05T10:25:28.723Z,5.44
2022-12-05T10:26:28.701Z,5.52
2022-12-05T10:27:28.696Z,5.51
2022-12-05T10:28:28.700Z,5.51
2022-12-05T10:29:28.686Z,5.50
2022-12-05T10:30:28.683Z,5.44
2022-12-05T10:31:28.688Z,5.51
2022-12-05T10:32:28.656Z,5.54
2022-12-05T10:33:28.635Z,5.47
2022-12-05T10:34:28.619Z,5.52
2022-12-05T10:35:28.635Z,5.58
2022-12-05T10:36:28.602Z,5.52
2022-12-05T10:37:28.592Z,5.54
2022-12-05T10:38:28.582Z,5.48
2022-12-05T10:39:28.605Z,5.52
2022-12-05T10:40:28.553Z,5.50
2022-12-05T10:41:28.574Z,5.52
2022-12-05T10:42:28.532Z,5.57
2022-12-05T10:43:28.524Z,5.57
2022-12-05T10:44:28.512Z,5.54
2022-12-05T10:45:28.505Z,5.54
2022-12-05T10:46:28.553Z,5.52
2022-12-05T10:47:28.491Z,5.50
2022-12-05T10:48:28.489Z,5.57
2022-12-05T10:49:28.480Z,5.52
2022-12-05T10:50:28.455Z,5.58
2022-12-05T10:51:32.529Z,5.52
2022-12-05T10:52:29.431Z,5.57
2022-12-05T10:53:28.416Z,5.57
2022-12-05T10:54:28.406Z,5.55
2022-12-05T10:55:28.391Z,5.57
2022-12-05T10:56:30.785Z,5.57
2022-12-05T10:57:28.374Z,5.57
2022-12-05T10:58:28.368Z,5.52
2022-12-05T10:59:28.354Z,5.59
2022-12-05T11:00:28.339Z,5.54
2022-12-05T11:01:28.384Z,5.55
2022-12-05T11:02:28.443Z,5.48
2022-12-05T11:03:28.311Z,5.57
2022-12-05T11:04:28.343Z,5.52
2022-12-05T11:05:28.393Z,5.62
2022-12-05T11:06:28.279Z,5.54
2022-12-05T11:07:28.290Z,5.48
2022-12-05T11:08:55.949Z,5.58
2022-12-05T11:09:29.247Z,5.55
2022-12-05T11:10:28.243Z,5.54
2022-12-05T11:11:28.302Z,5.52
2022-12-05T11:12:28.238Z,5.52
2022-12-05T11:13:28.206Z,5.48
2022-12-05T11:14:28.192Z,5.55
2022-12-05T11:15:28.190Z,5.54
2022-12-05T11:16:28.246Z,5.59
2022-12-05T11:17:28.186Z,5.62
2022-12-05T11:18:28.151Z,5.58
2022-12-05T11:19:28.148Z,5.59
2022-12-05T11:20:28.143Z,5.57
2022-12-05T11:21:28.122Z,5.62
2022-12-05T11:22:28.138Z,5.66
2022-12-05T11:23:28.101Z,5.57
2022-12-05T11:24:28.085Z,5.57
2022-12-05T11:25:28.127Z,5.67
2022-12-05T11:26:28.064Z,5.66
2022-12-05T11:27:28.058Z,5.65
2022-12-05T11:28:28.045Z,5.59
2022-12-05T11:29:28.042Z,5.65
2022-12-05T11:30:28.020Z,5.55
2022-12-05T11:31:28.291Z,5.61
2022-12-05T11:32:28.007Z,5.62
2022-12-05T11:33:27.991Z,5.57
2022-12-05T11:34:27.980Z,5.62
2022-12-05T11:35:27.995Z,5.57
2022-12-05T11:36:27.977Z,5.65
2022-12-05T11:37:27.959Z,5.62
2022-12-05T11:38:27.938Z,5.65
2022-12-05T11:39:27.933Z,5.59
2022-12-05T11:40:29.523Z,5.66
2022-12-05T11:41:27.980Z,5.59
2022-12-05T11:42:27.900Z,5.65
2022-12-05T11:43:27.888Z,5.61
2022-12-05T11:44:27.864Z,5.57
2022-12-05T11:45:27.866Z,5.59
2022-12-05T11:46:27.925Z,5.61
2022-12-05T11:47:27.840Z,5.65
2022-12-05T11:48:27.827Z,5.59
2022-12-05T11:49:27.846Z,5.59
2022-12-05T11:50:27.807Z,5.59
2022-12-05T11:51:27.797Z,5.72
2022-12-05T11:52:27.911Z,5.59
2022-12-05T11:53:27.801Z,5.70
2022-12-05T11:54:56.718Z,5.72
2022-12-05T11:55:28.757Z,5.66
2022-12-05T11:56:27.739Z,5.70
2022-12-05T11:57:27.735Z,5.62
2022-12-05T11:58:27.739Z,5.69
2022-12-05T11:59:27.711Z,5.67
2022-12-05T12:00:27.694Z,5.54
2022-12-05T12:01:27.714Z,5.61
2022-12-05T12:02:27.733Z,5.75
2022-12-05T12:03:32.814Z,5.69
2022-12-05T12:04:28.669Z,5.67
2022-12-05T12:05:27.676Z,5.72
2022-12-05T12:06:27.657Z,5.66
2022-12-05T12:07:27.632Z,5.67
2022-12-05T12:08:27.637Z,5.62
2022-12-05T12:09:27.602Z,5.72
2022-12-05T12:10:27.598Z,5.76
2022-12-05T12:11:27.610Z,5.72
2022-12-05T12:12:27.595Z,5.66
2022-12-05T12:13:27.593Z,5.72
2022-12-05T12:14:27.543Z,5.72
2022-12-05T12:15:27.545Z,5.75
2022-12-05T12:16:27.608Z,5.75
2022-12-05T12:17:27.517Z,5.75
2022-12-05T12:18:27.498Z,5.72
2022-12-05T12:19:27.490Z,5.67
2022-12-05T12:20:27.490Z,5.73
2022-12-05T12:21:27.510Z,5.77
2022-12-05T12:22:27.459Z,5.67
2022-12-05T12:23:27.450Z,5.67
2022-12-05T12:24:27.453Z,5.76
2022-12-05T12:25:27.447Z,5.72
2022-12-05T12:26:27.410Z,5.80
2022-12-05T12:27:27.435Z,5.70
2022-12-05T12:28:27.394Z,5.77
2022-12-05T12:29:27.383Z,5.77
2022-12-05T12:30:27.363Z,5.77
2022-12-05T12:31:27.512Z,5.76
2022-12-05T12:32:27.372Z,5.82
2022-12-05T12:33:27.783Z,5.85
2022-12-05T12:34:27.359Z,5.73
2022-12-05T12:35:27.316Z,5.77
2022-12-05T12:36:27.310Z,5.77
2022-12-05T12:37:27.323Z,5.82
2022-12-05T12:38:27.284Z,5.75
2022-12-05T12:39:27.280Z,5.82
2022-12-05T12:40:27.311Z,5.84
2022-12-05T12:41:27.254Z,5.82
2022-12-05T12:42:27.243Z,5.75
2022-12-05T12:43:52.740Z,5.77
2022-12-05T12:44:28.216Z,5.80
2022-12-05T12:45:27.290Z,5.79
2022-12-05T12:46:27.374Z,5.80
2022-12-05T12:47:27.189Z,5.79
2022-12-05T12:48:27.194Z,5.80
2022-12-05T12:49:27.173Z,5.80
2022-12-05T12:50:27.158Z,5.82
2022-12-05T12:51:27.172Z,5.80
2022-12-05T12:52:27.136Z,5.82
2022-12-05T12:53:27.129Z,5.82
2022-12-05T12:54:54.867Z,5.84
2022-12-05T12:55:28.105Z,5.79
2022-12-05T12:56:27.137Z,5.76
2022-12-05T12:57:27.086Z,5.87
2022-12-05T12:58:27.069Z,5.85
2022-12-05T12:59:27.123Z,5.85
2022-12-05T13:00:27.065Z,5.82
2022-12-05T13:01:27.095Z,5.84
2022-12-05T13:02:27.067Z,5.82
2022-12-05T13:03:27.020Z,5.84
2022-12-05T13:04:27.037Z,5.82
2022-12-05T13:05:27.004Z,5.80
2022-12-05T13:06:26.989Z,5.84
2022-12-05T13:07:26.983Z,5.85
2022-12-05T13:08:26.968Z,5.82
2022-12-05T13:09:27.010Z,5.84
2022-12-05T13:10:26.945Z,5.80
2022-12-05T13:11:26.941Z,5.80
2022-12-05T13:12:26.966Z,5.87
2022-12-05T13:13:26.923Z,5.85
2022-12-05T13:14:26.912Z,5.80
2022-12-05T13:15:26.915Z,5.85
2022-12-05T13:16:26.946Z,5.88
2022-12-05T13:17:26.874Z,5.82
2022-12-05T13:18:26.859Z,5.85